Rosal, Spain
Current Conditions -  °F | °C
As of 1:00 PM on Sunday 21 Dec 2014 (Local Time) from LEVX Reporting Station
Clear Clear  
Wind Chill: 52°   Ceiling: Unl
Heat Index: 52°   Visibility: 6mi
Dew Point: 52°   Wind: 5mph
Humidity: 100%   Direction: 200°SSW
Pressure: 30.53"   Gusts: NA
Location:  41.94°N, 8.84°W
Report Text: LEVX 211200Z 20004KT 150V240 CAVOK 11/11 Q1034 NOSIG
Loading
Personal Weather Stations






























Interactive Weather Map New forecast layout! Learn more

10-Day Weather Forecast

Advertisements
Track Severe Weather on mobile